Emporia, Kansas
Current Conditions -  °F | °C
As of 2:53 PM on Thursday 18 Dec 2014 (Local Time) from KEMP Reporting Station
Haze Haze  
Wind Chill: 31°   Ceiling: 500
Heat Index: 31°   Visibility: 4mi
Dew Point: 29°   Wind: 0mph
Humidity: 92%   Direction: NA
Pressure: 30.17"   Gusts: NA
Location:  38.41°N, 96.18°W
Report Text: KEMP 182053Z AUTO 00000KT 4SM BR OVC005 M01/M02 A3017 RMK AO2 SLP232 T10061017 55007
Loading
Personal Weather Stations






























Interactive Weather Map New forecast layout! Learn more

10-Day Weather Forecast

Advertisements
Track Severe Weather on mobile